Time;durP1;ratioP1;P1;durP2;ratioP2;P2;SDS_P1;SDS_P2;PMS_P1;PMS_P2;Temp;Humidity;BMP_temperature;BMP_pressure;BME280_temperature;BME280_humidity;BME280_pressure;Samples;Min_cycle;Max_cycle;Signal;HPM_P1;HPM_P2
2021/12/24 00:01:52;;;;;;;15.37;13.27;;;10.60;99.90;;;;;;5071581;28;20419;-67
2021/12/24 00:04:17;;;;;;;16.53;13.43;;;10.60;99.90;;;;;;5070724;28;20415;-67
2021/12/24 00:06:44;;;;;;;17.03;14.00;;;10.60;99.90;;;;;;5071421;28;20475;-67
2021/12/24 00:09:10;;;;;;;15.50;13.83;;;10.50;99.90;;;;;;5069493;28;20417;-67
2021/12/24 00:11:36;;;;;;;18.60;13.90;;;10.60;99.90;;;;;;5066832;28;20422;-67
2021/12/24 00:14:05;;;;;;;16.50;14.80;;;10.60;99.90;;;;;;5069024;28;20514;-67
2021/12/24 00:16:39;;;;;;;15.23;13.80;;;10.60;99.90;;;;;;5070047;28;20465;-66
2021/12/24 00:20:04;;;;;;;16.03;13.07;;;10.60;99.90;;;;;;5070581;28;20416;-67
2021/12/24 00:35:40;;;;;;;13.53;12.10;;;10.50;99.90;;;;;;5042864;28;20439;-66
2021/12/24 00:38:10;;;;;;;12.83;11.63;;;10.50;99.90;;;;;;5068902;28;20439;-72
2021/12/24 00:40:46;;;;;;;13.57;12.17;;;10.50;99.90;;;;;;5072070;28;20407;-67
2021/12/24 00:43:14;;;;;;;12.53;11.37;;;10.50;99.90;;;;;;5056143;28;20460;-66
2021/12/24 00:45:42;;;;;;;12.97;11.53;;;10.50;99.90;;;;;;5072003;28;20452;-66
2021/12/24 00:48:12;;;;;;;12.60;11.27;;;10.50;99.90;;;;;;5070524;28;20434;-66
2021/12/24 00:56:02;;;;;;;12.80;11.70;;;10.50;99.90;;;;;;5070826;28;20937;-66
2021/12/24 00:58:28;;;;;;;12.77;11.43;;;10.50;99.90;;;;;;5050420;28;20420;-66
2021/12/24 01:00:54;;;;;;;11.77;10.67;;;10.50;99.90;;;;;;5052132;28;20417;-68
2021/12/24 01:03:20;;;;;;;11.20;10.30;;;10.50;99.90;;;;;;5054303;28;20937;-66
2021/12/24 01:05:46;;;;;;;12.13;11.03;;;10.50;99.90;;;;;;5071796;28;20195;-65
2021/12/24 01:08:13;;;;;;;11.00;10.10;;;10.50;99.90;;;;;;5070469;28;20186;-66
2021/12/24 01:10:45;;;;;;;10.30;9.43;;;10.50;99.90;;;;;;5069420;28;20463;-66
2021/12/24 01:13:11;;;;;;;10.93;9.93;;;10.60;99.90;;;;;;5069683;28;20706;-66
2021/12/24 01:15:39;;;;;;;10.63;9.73;;;10.60;99.90;;;;;;5070769;28;20429;-66
2021/12/24 01:18:14;;;;;;;9.83;9.03;;;10.60;99.90;;;;;;5069568;28;20778;-66
2021/12/24 01:20:45;;;;;;;9.80;8.90;;;10.60;99.90;;;;;;5069516;28;20400;-66
2021/12/24 01:23:33;;;;;;;9.67;8.87;;;10.60;99.90;;;;;;5064965;28;20422;-70
2021/12/24 01:26:04;;;;;;;9.30;8.60;;;10.60;99.90;;;;;;5070081;28;20412;-67
2021/12/24 01:28:59;;;;;;;8.37;7.77;;;10.60;99.90;;;;;;5067977;28;20404;-66
2021/12/24 01:45:31;;;;;;;8.90;8.03;;;10.80;99.90;;;;;;5008380;28;20570;-68
2021/12/24 01:48:00;;;;;;;8.30;7.60;;;10.70;99.90;;;;;;4989831;28;20427;-67
2021/12/24 01:50:28;;;;;;;9.50;8.57;;;10.70;99.90;;;;;;5023303;28;20516;-67
2021/12/24 01:52:55;;;;;;;9.30;8.47;;;10.80;99.90;;;;;;5051757;28;20407;-70
2021/12/24 01:55:22;;;;;;;9.17;8.40;;;10.70;99.90;;;;;;5049756;28;20439;-74
2021/12/24 01:57:49;;;;;;;8.63;7.93;;;10.70;99.90;;;;;;5071103;28;20475;-70
2021/12/24 02:00:19;;;;;;;9.10;8.30;;;10.70;99.90;;;;;;5071423;28;20407;-67
2021/12/24 02:02:45;;;;;;;10.50;9.40;;;10.80;99.90;;;;;;5070783;28;20397;-66
2021/12/24 02:05:13;;;;;;;9.00;8.20;;;10.80;99.90;;;;;;5071312;28;20532;-67
2021/12/24 02:07:39;;;;;;;9.07;8.23;;;10.70;99.90;;;;;;5070805;28;20490;-67
2021/12/24 02:10:07;;;;;;;9.17;8.37;;;10.70;99.90;;;;;;5057980;28;20813;-66
2021/12/24 02:12:35;;;;;;;9.53;8.63;;;10.80;99.90;;;;;;5070590;28;20423;-67
2021/12/24 02:15:04;;;;;;;11.50;9.23;;;10.80;99.90;;;;;;5069867;28;20445;-66
2021/12/24 02:28:36;;;;;;;10.20;9.20;;;10.80;99.90;;;;;;5072144;28;20403;-67
2021/12/24 02:31:03;;;;;;;9.30;8.47;;;10.70;99.90;;;;;;5072115;28;20408;-67
2021/12/24 02:33:29;;;;;;;10.53;9.23;;;10.70;99.90;;;;;;5070046;28;20422;-70
2021/12/24 02:35:55;;;;;;;10.73;9.70;;;10.70;99.90;;;;;;5070770;28;20461;-69
2021/12/24 02:38:21;;;;;;;10.80;9.70;;;10.70;99.90;;;;;;5069803;28;20328;-68
2021/12/24 02:40:47;;;;;;;10.30;9.30;;;10.80;99.90;;;;;;5069384;28;20215;-69
2021/12/24 02:43:16;;;;;;;11.57;10.47;;;10.90;99.90;;;;;;5071703;28;20183;-67
2021/12/24 02:45:44;;;;;;;9.70;8.80;;;10.80;99.90;;;;;;5070081;28;20510;-68
2021/12/24 02:48:46;;;;;;;9.40;8.60;;;10.80;99.90;;;;;;5071596;28;20478;-67
2021/12/24 02:53:57;;;;;;;10.20;9.30;;;10.80;99.90;;;;;;5051943;28;20510;-68
2021/12/24 02:56:35;;;;;;;10.40;9.23;;;10.80;99.90;;;;;;5058750;28;20457;-68
2021/12/24 02:59:06;;;;;;;10.43;9.37;;;10.80;99.90;;;;;;5072949;28;20407;-68
2021/12/24 03:01:35;;;;;;;12.07;10.80;;;10.90;99.90;;;;;;5072149;28;20816;-68
2021/12/24 03:04:03;;;;;;;13.33;11.87;;;10.90;99.90;;;;;;5072538;28;20471;-70
2021/12/24 03:06:32;;;;;;;13.60;11.83;;;10.90;99.90;;;;;;5072494;28;20422;-75
2021/12/24 03:08:57;;;;;;;13.60;12.30;;;10.90;99.90;;;;;;5072480;28;20516;-67
2021/12/24 03:11:24;;;;;;;14.60;12.37;;;10.90;99.90;;;;;;5073426;28;20479;-69
2021/12/24 03:13:51;;;;;;;13.70;12.30;;;10.80;99.90;;;;;;5071316;28;20995;-66
2021/12/24 03:16:17;;;;;;;15.67;12.10;;;10.80;99.90;;;;;;5071743;28;20466;-68
2021/12/24 03:18:44;;;;;;;16.67;13.30;;;10.80;99.90;;;;;;5072246;28;20424;-67
2021/12/24 03:21:18;;;;;;;13.67;12.37;;;10.70;99.90;;;;;;5073620;28;20447;-67
2021/12/24 03:24:33;;;;;;;13.50;12.10;;;10.90;99.90;;;;;;5072441;28;20432;-67
2021/12/24 03:26:30;;;;;;;13.80;11.80;;;10.80;99.90;;;;;;5072625;28;20423;-74
2021/12/24 03:28:56;;;;;;;13.90;12.50;;;10.70;99.90;;;;;;5071987;28;20419;-67
2021/12/24 03:31:22;;;;;;;13.20;11.90;;;10.80;99.90;;;;;;5072997;28;20521;-67
2021/12/24 03:33:53;;;;;;;12.13;11.03;;;10.80;99.90;;;;;;5072173;28;20525;-68
2021/12/24 03:36:22;;;;;;;13.33;12.10;;;10.80;99.90;;;;;;5073088;28;20598;-67
2021/12/24 03:38:48;;;;;;;11.80;10.70;;;10.80;99.90;;;;;;5072027;28;20434;-67
2021/12/24 03:41:14;;;;;;;12.47;11.37;;;10.90;99.90;;;;;;5072749;28;20770;-67
2021/12/24 03:43:40;;;;;;;11.73;10.73;;;10.90;99.90;;;;;;5072372;28;20447;-66
2021/12/24 03:46:10;;;;;;;12.53;11.17;;;10.90;99.90;;;;;;5072870;28;20467;-67
2021/12/24 03:56:26;;;;;;;10.53;9.63;;;11.10;99.90;;;;;;5073094;28;20442;-66
2021/12/24 03:58:51;;;;;;;10.90;9.90;;;11.00;99.90;;;;;;5072284;28;20468;-66
2021/12/24 04:01:17;;;;;;;10.60;9.70;;;11.10;99.90;;;;;;5071443;28;20181;-66
2021/12/24 04:03:43;;;;;;;11.67;10.57;;;11.10;99.90;;;;;;5071878;28;20179;-66
2021/12/24 04:06:09;;;;;;;10.90;10.00;;;11.10;99.90;;;;;;5072899;28;20451;-67
2021/12/24 04:08:35;;;;;;;11.93;10.83;;;11.10;99.90;;;;;;5072160;28;20177;-67
2021/12/24 04:11:01;;;;;;;11.80;10.63;;;11.10;99.90;;;;;;5072347;28;20457;-67
2021/12/24 04:13:27;;;;;;;11.17;10.17;;;11.10;99.90;;;;;;5072915;28;20422;-69
2021/12/24 04:15:52;;;;;;;12.40;11.17;;;11.10;99.90;;;;;;5071874;28;20463;-68
2021/12/24 04:18:33;;;;;;;12.53;10.73;;;11.10;99.90;;;;;;5073138;28;20173;-69
2021/12/24 04:26:32;;;;;;;12.83;11.53;;;11.10;99.90;;;;;;5072146;28;20406;-75
2021/12/24 04:28:58;;;;;;;15.97;11.37;;;11.00;99.90;;;;;;5072194;28;20419;-69
2021/12/24 04:32:10;;;;;;;14.30;12.83;;;11.00;99.90;;;;;;5072463;28;20877;-69
2021/12/24 04:34:16;;;;;;;14.47;12.73;;;11.00;99.90;;;;;;5068955;28;20523;-69
2021/12/24 04:50:58;;;;;;;14.27;12.77;;;11.00;99.90;;;;;;5072841;28;20165;-69
2021/12/24 05:01:40;;;;;;;15.30;13.50;;;10.90;99.90;;;;;;5052389;28;20406;-68
2021/12/24 05:04:09;;;;;;;16.60;13.43;;;10.90;99.90;;;;;;5051296;28;20764;-69
2021/12/24 05:06:40;;;;;;;15.27;13.57;;;10.90;99.90;;;;;;5051551;28;20446;-75
2021/12/24 05:09:11;;;;;;;15.10;13.50;;;10.80;99.90;;;;;;5052276;28;20398;-69
2021/12/24 05:11:37;;;;;;;16.60;13.40;;;10.90;99.90;;;;;;5067138;28;20397;-75
2021/12/24 05:14:04;;;;;;;15.90;13.93;;;10.90;99.90;;;;;;5052218;28;20891;-69
2021/12/24 05:16:47;;;;;;;18.23;15.07;;;10.90;99.90;;;;;;5068064;28;20881;-69
2021/12/24 05:21:50;;;;;;;20.10;15.83;;;10.90;99.90;;;;;;5071041;28;20403;-68
2021/12/24 05:24:21;;;;;;;19.20;16.50;;;10.90;99.90;;;;;;5071497;28;20452;-69
2021/12/24 05:26:50;;;;;;;17.77;15.33;;;10.90;99.90;;;;;;5069730;28;20419;-68
2021/12/24 05:29:17;;;;;;;18.40;16.07;;;10.90;99.90;;;;;;5071512;28;20434;-68
2021/12/24 05:31:44;;;;;;;20.10;16.13;;;11.00;99.90;;;;;;5070795;28;20422;-69
2021/12/24 05:34:10;;;;;;;18.27;15.73;;;11.00;99.90;;;;;;5072091;28;20419;-68
2021/12/24 05:36:36;;;;;;;18.30;16.20;;;11.00;99.90;;;;;;5070724;28;20942;-74
2021/12/24 05:39:04;;;;;;;19.40;15.90;;;11.00;99.90;;;;;;5069557;28;20455;-68
2021/12/24 05:41:29;;;;;;;19.30;15.40;;;11.00;99.90;;;;;;5070491;28;20407;-69
2021/12/24 05:43:56;;;;;;;19.03;16.07;;;10.90;99.90;;;;;;5068950;28;21083;-68
2021/12/24 05:46:21;;;;;;;17.53;15.20;;;10.90;99.90;;;;;;5071669;28;20228;-68
2021/12/24 05:48:47;;;;;;;18.67;15.50;;;10.90;99.90;;;;;;5069846;28;20476;-68
2021/12/24 05:51:13;;;;;;;21.37;15.63;;;10.90;99.90;;;;;;5071290;28;20267;-68
2021/12/24 05:53:39;;;;;;;19.37;15.90;;;10.90;99.90;;;;;;5071022;28;20234;-74
2021/12/24 05:56:05;;;;;;;19.77;15.50;;;10.90;99.90;;;;;;5071070;28;20608;-69
2021/12/24 05:58:31;;;;;;;16.60;14.47;;;10.90;99.90;;;;;;5071306;28;20425;-68
2021/12/24 06:00:57;;;;;;;19.60;15.23;;;10.90;99.90;;;;;;5074540;28;21051;-68
2021/12/24 06:03:23;;;;;;;20.73;15.50;;;11.00;99.90;;;;;;5074315;28;20246;-72
2021/12/24 06:05:49;;;;;;;18.83;14.83;;;11.00;99.90;;;;;;5073766;28;20427;-69
2021/12/24 06:08:15;;;;;;;18.97;14.03;;;11.00;99.90;;;;;;5074067;28;20427;-69
2021/12/24 06:10:42;;;;;;;18.80;15.20;;;11.10;99.90;;;;;;5074341;28;20638;-70
2021/12/24 06:13:08;;;;;;;16.57;14.57;;;11.10;99.90;;;;;;5075416;28;20183;-72
2021/12/24 06:15:42;;;;;;;17.20;13.70;;;11.20;99.90;;;;;;5075139;28;20520;-69
2021/12/24 06:20:50;;;;;;;17.10;13.27;;;11.30;99.90;;;;;;5074110;28;20499;-68
2021/12/24 06:23:18;;;;;;;16.13;13.47;;;11.30;99.90;;;;;;5073454;28;20424;-67
2021/12/24 06:25:44;;;;;;;18.07;14.60;;;11.40;99.90;;;;;;5073701;28;20423;-68
2021/12/24 06:28:10;;;;;;;19.23;14.20;;;11.30;99.90;;;;;;5073778;28;20422;-68
2021/12/24 06:30:37;;;;;;;18.73;14.30;;;11.20;99.90;;;;;;5071459;28;20558;-67
2021/12/24 06:33:03;;;;;;;17.80;13.50;;;11.20;99.90;;;;;;5066680;28;20641;-70
2021/12/24 06:35:29;;;;;;;20.10;14.77;;;11.20;99.90;;;;;;5066527;28;20430;-68
2021/12/24 06:37:58;;;;;;;18.97;14.47;;;11.10;99.90;;;;;;5053797;28;20608;-68
2021/12/24 06:40:25;;;;;;;17.60;14.30;;;11.20;99.90;;;;;;5070638;28;20484;-67
2021/12/24 06:42:51;;;;;;;18.60;15.10;;;11.20;99.90;;;;;;5073458;28;20520;-67
2021/12/24 06:45:21;;;;;;;18.23;15.87;;;11.20;99.90;;;;;;5070432;28;20494;-67
2021/12/24 06:47:47;;;;;;;21.70;15.27;;;11.20;99.90;;;;;;5068743;28;20514;-68
2021/12/24 06:50:14;;;;;;;19.50;15.60;;;11.20;99.90;;;;;;5060337;28;20429;-68
2021/12/24 06:52:40;;;;;;;18.80;15.10;;;11.20;99.90;;;;;;5072595;28;20423;-73
2021/12/24 06:55:06;;;;;;;17.47;15.07;;;11.20;99.90;;;;;;5063407;28;20478;-67
2021/12/24 06:57:33;;;;;;;19.30;15.00;;;11.20;99.90;;;;;;5055946;28;20457;-67
2021/12/24 06:59:58;;;;;;;22.67;15.87;;;11.20;99.90;;;;;;5059034;28;20888;-68
2021/12/24 07:02:24;;;;;;;20.20;15.03;;;11.20;99.90;;;;;;5068747;28;20426;-68
2021/12/24 07:04:50;;;;;;;17.57;15.23;;;11.30;99.90;;;;;;5071111;28;20256;-68
2021/12/24 07:07:15;;;;;;;16.53;13.93;;;11.20;99.90;;;;;;5068826;28;20275;-71
2021/12/24 07:09:44;;;;;;;25.13;15.40;;;11.20;99.90;;;;;;5068524;28;20209;-74
2021/12/24 07:12:13;;;;;;;19.90;14.70;;;11.20;99.90;;;;;;5066505;28;20187;-67
2021/12/24 07:14:40;;;;;;;22.53;15.00;;;11.30;99.90;;;;;;5054949;28;20945;-73
2021/12/24 07:17:07;;;;;;;18.10;14.30;;;11.30;99.90;;;;;;5052129;28;20467;-68
2021/12/24 07:19:34;;;;;;;16.43;14.33;;;11.30;99.90;;;;;;5061615;28;20430;-67
2021/12/24 07:22:00;;;;;;;17.00;13.23;;;11.30;99.90;;;;;;5067029;28;20425;-68
2021/12/24 07:24:26;;;;;;;17.57;13.40;;;11.20;99.90;;;;;;5069161;28;20432;-67
2021/12/24 07:26:52;;;;;;;18.53;15.83;;;11.30;99.90;;;;;;5060787;28;20427;-68
2021/12/24 07:29:18;;;;;;;21.60;14.73;;;11.30;99.90;;;;;;5053841;28;20177;-68
2021/12/24 07:31:43;;;;;;;19.93;15.87;;;11.30;99.90;;;;;;5071573;28;20211;-73
2021/12/24 07:34:09;;;;;;;20.13;15.63;;;11.30;99.90;;;;;;5073254;28;20184;-68
2021/12/24 07:36:35;;;;;;;23.73;16.43;;;11.30;99.90;;;;;;5072287;28;20196;-67
2021/12/24 07:39:00;;;;;;;20.10;16.00;;;11.30;99.90;;;;;;5065927;28;20185;-68
2021/12/24 07:41:26;;;;;;;21.63;16.00;;;11.30;99.90;;;;;;5072209;28;20181;-67
2021/12/24 07:43:52;;;;;;;23.10;15.80;;;11.20;99.90;;;;;;5072372;28;20613;-68
2021/12/24 07:46:19;;;;;;;22.30;15.53;;;11.30;99.90;;;;;;5069493;28;20542;-68
2021/12/24 07:48:48;;;;;;;21.37;15.97;;;11.30;99.90;;;;;;5065933;28;20793;-74
2021/12/24 07:54:03;;;;;;;18.77;14.50;;;11.30;99.90;;;;;;5071396;28;20491;-68
2021/12/24 07:56:30;;;;;;;19.77;15.03;;;11.40;99.90;;;;;;5070130;28;21005;-69
2021/12/24 07:58:57;;;;;;;20.20;15.60;;;11.40;99.90;;;;;;5072198;28;20427;-67
2021/12/24 08:01:27;;;;;;;19.73;13.50;;;11.40;99.90;;;;;;5072311;28;20421;-68
2021/12/24 08:03:55;;;;;;;19.10;15.20;;;11.30;99.90;;;;;;5072109;28;20458;-68
2021/12/24 08:06:24;;;;;;;26.57;15.90;;;11.30;99.90;;;;;;5072811;28;20431;-68
2021/12/24 08:08:50;;;;;;;21.23;15.27;;;11.30;99.90;;;;;;5070818;28;20778;-69
2021/12/24 08:11:16;;;;;;;17.97;14.13;;;11.30;99.90;;;;;;5072693;28;20414;-69
2021/12/24 08:13:42;;;;;;;23.50;16.80;;;11.30;99.90;;;;;;5072771;28;20449;-68
2021/12/24 08:16:09;;;;;;;26.90;18.23;;;11.40;99.90;;;;;;5071596;28;20571;-68
2021/12/24 08:18:36;;;;;;;21.20;15.70;;;11.50;99.90;;;;;;5072291;28;20483;-68
2021/12/24 08:21:03;;;;;;;17.73;14.63;;;11.50;99.90;;;;;;5070911;28;20436;-68
2021/12/24 08:23:29;;;;;;;20.33;14.67;;;11.60;99.90;;;;;;5072153;28;20451;-68
2021/12/24 08:25:58;;;;;;;19.47;14.90;;;11.60;99.90;;;;;;5069179;28;20942;-69
2021/12/24 08:28:26;;;;;;;26.10;14.40;;;11.60;99.90;;;;;;5065384;28;20192;-72
2021/12/24 08:30:53;;;;;;;19.43;13.43;;;11.60;99.90;;;;;;5054886;28;20467;-72
2021/12/24 08:33:19;;;;;;;19.33;14.63;;;11.60;99.90;;;;;;5057791;28;20454;-68
2021/12/24 08:35:45;;;;;;;20.03;13.90;;;11.60;99.90;;;;;;5070457;28;20919;-76
2021/12/24 08:38:10;;;;;;;19.50;14.40;;;11.60;99.90;;;;;;5060803;28;20621;-68
2021/12/24 08:40:36;;;;;;;19.30;13.60;;;11.70;99.90;;;;;;5071725;28;20419;-68
2021/12/24 08:43:02;;;;;;;19.70;14.93;;;11.70;99.90;;;;;;5069740;28;20191;-68
2021/12/24 08:45:28;;;;;;;136.50;75.40;;;11.70;99.90;;;;;;5072378;28;20254;-68
2021/12/24 08:47:53;;;;;;;126.37;91.90;;;11.70;99.90;;;;;;5070428;28;20203;-68
2021/12/24 08:50:19;;;;;;;22.50;14.20;;;11.70;99.90;;;;;;5072124;28;20272;-68
2021/12/24 08:52:46;;;;;;;15.53;13.50;;;11.70;99.90;;;;;;5071361;28;20187;-75
2021/12/24 08:55:14;;;;;;;19.40;13.80;;;11.60;99.90;;;;;;5071319;28;20419;-69
2021/12/24 08:57:40;;;;;;;19.17;13.43;;;11.50;99.90;;;;;;5070731;28;20863;-68
2021/12/24 09:00:09;;;;;;;15.37;13.80;;;11.60;99.90;;;;;;5071785;28;20478;-67
2021/12/24 09:02:36;;;;;;;17.70;12.63;;;11.60;99.90;;;;;;5072432;28;20414;-67
2021/12/24 09:05:04;;;;;;;21.00;13.77;;;11.60;99.90;;;;;;5071166;28;20913;-67
2021/12/24 09:07:30;;;;;;;18.30;12.90;;;11.60;99.90;;;;;;5071688;28;20433;-67
2021/12/24 09:09:56;;;;;;;21.30;13.30;;;11.70;99.90;;;;;;5071168;28;20422;-72
2021/12/24 09:12:21;;;;;;;20.23;15.87;;;11.70;99.90;;;;;;5071866;28;20929;-73
2021/12/24 09:14:47;;;;;;;17.87;12.07;;;11.70;99.90;;;;;;5071288;28;20302;-76
2021/12/24 09:17:13;;;;;;;18.30;12.50;;;11.80;99.90;;;;;;5071785;28;20266;-73
2021/12/24 09:19:45;;;;;;;23.17;14.67;;;12.20;99.90;;;;;;5072214;28;20183;-72
2021/12/24 09:22:16;;;;;;;18.80;11.60;;;12.70;99.90;;;;;;5072149;28;20457;-72
2021/12/24 09:24:43;;;;;;;16.93;11.97;;;12.90;99.90;;;;;;5072512;28;20435;-72
2021/12/24 09:27:08;;;;;;;22.50;13.30;;;13.10;99.90;;;;;;5071448;28;20956;-72
2021/12/24 09:29:34;;;;;;;19.00;13.33;;;13.30;99.90;;;;;;5072457;28;20495;-72
2021/12/24 09:32:00;;;;;;;16.90;13.70;;;13.30;99.90;;;;;;5071699;28;20881;-73
2021/12/24 09:34:26;;;;;;;15.70;11.57;;;13.40;99.90;;;;;;5075673;28;20405;-72
2021/12/24 09:36:52;;;;;;;20.90;13.73;;;13.30;99.90;;;;;;5075626;28;20264;-70
2021/12/24 09:39:18;;;;;;;15.07;12.43;;;13.40;99.90;;;;;;5076182;28;20172;-69
2021/12/24 09:41:44;;;;;;;17.10;11.80;;;13.40;99.90;;;;;;5076591;28;20586;-72
2021/12/24 09:44:11;;;;;;;14.20;12.00;;;13.50;99.90;;;;;;5075326;28;20424;-72
2021/12/24 09:46:42;;;;;;;17.60;11.43;;;13.70;99.90;;;;;;5073209;28;20458;-72
2021/12/24 09:49:12;;;;;;;16.10;12.30;;;13.80;99.90;;;;;;5074293;28;20415;-72
2021/12/24 09:51:40;;;;;;;21.83;12.87;;;14.20;99.90;;;;;;5070985;28;20414;-72
2021/12/24 09:54:12;;;;;;;19.47;13.33;;;14.30;99.90;;;;;;5073947;28;20496;-71
2021/12/24 09:56:39;;;;;;;16.13;13.07;;;14.50;99.90;;;;;;5072353;28;20457;-73
2021/12/24 09:59:05;;;;;;;15.87;11.20;;;14.50;99.90;;;;;;5073948;28;20906;-71
2021/12/24 10:01:39;;;;;;;17.83;11.63;;;14.00;99.90;;;;;;5072321;28;20424;-70
2021/12/24 10:04:10;;;;;;;16.93;13.13;;;14.00;99.90;;;;;;5073410;28;20855;-70
2021/12/24 10:06:38;;;;;;;22.50;12.40;;;13.80;99.90;;;;;;5072009;28;20502;-68
2021/12/24 10:09:11;;;;;;;16.93;12.90;;;13.50;99.90;;;;;;5074544;28;20420;-68
2021/12/24 10:11:55;;;;;;;15.73;11.17;;;13.10;99.90;;;;;;5072900;28;20409;-67
2021/12/24 10:14:38;;;;;;;160.30;88.67;;;12.80;99.90;;;;;;5070087;28;20437;-69
2021/12/24 10:17:13;;;;;;;129.13;90.07;;;12.40;99.90;;;;;;5072719;28;20455;-69
2021/12/24 10:19:44;;;;;;;22.97;14.10;;;12.30;99.90;;;;;;5073580;28;20406;-70
2021/12/24 10:22:11;;;;;;;18.23;12.40;;;12.20;99.90;;;;;;5072810;28;20500;-69
2021/12/24 10:24:37;;;;;;;13.43;11.20;;;12.10;99.90;;;;;;5069667;28;20910;-69
2021/12/24 10:27:03;;;;;;;16.50;12.07;;;12.20;99.90;;;;;;5070270;28;20473;-69
2021/12/24 10:29:41;;;;;;;14.80;11.23;;;12.10;99.90;;;;;;5072716;28;20426;-68
2021/12/24 10:32:11;;;;;;;17.17;11.80;;;12.00;99.90;;;;;;5070105;28;20891;-69
2021/12/24 10:34:38;;;;;;;16.00;11.50;;;11.90;99.90;;;;;;5065065;28;20505;-68
2021/12/24 10:37:13;;;;;;;14.20;10.93;;;12.00;99.90;;;;;;5070567;28;20838;-69
2021/12/24 10:39:42;;;;;;;14.40;10.90;;;11.90;99.90;;;;;;5069636;28;20509;-69
2021/12/24 10:42:19;;;;;;;17.67;12.70;;;11.90;99.90;;;;;;5071925;28;20437;-68
2021/12/24 10:44:47;;;;;;;15.30;12.30;;;12.00;99.90;;;;;;5066590;28;20876;-70
2021/12/24 10:47:25;;;;;;;19.37;12.10;;;11.90;99.90;;;;;;5067692;28;20520;-69
2021/12/24 10:55:12;;;;;;;20.70;11.77;;;11.80;99.90;;;;;;5072995;28;20422;-68
2021/12/24 10:57:41;;;;;;;18.03;11.57;;;11.80;99.90;;;;;;5072962;28;20460;-68
2021/12/24 11:00:17;;;;;;;19.40;11.23;;;11.80;99.90;;;;;;5073547;28;20427;-69
2021/12/24 11:02:48;;;;;;;15.23;10.77;;;11.80;99.90;;;;;;5073161;28;20423;-67
2021/12/24 11:05:24;;;;;;;15.17;11.30;;;11.80;99.90;;;;;;5073085;28;20408;-69
2021/12/24 11:07:51;;;;;;;17.70;12.50;;;11.80;99.90;;;;;;5053365;28;20868;-76
2021/12/24 11:10:31;;;;;;;277.17;165.67;;;11.80;99.90;;;;;;5072465;28;20499;-69
2021/12/24 11:12:58;;;;;;;28.23;17.80;;;11.80;99.90;;;;;;5070358;28;20423;-69
2021/12/24 11:15:32;;;;;;;19.47;12.60;;;11.80;99.90;;;;;;5054189;28;20805;-69
2021/12/24 11:18:04;;;;;;;18.47;12.20;;;11.70;99.90;;;;;;5070972;28;20529;-69
2021/12/24 11:20:30;;;;;;;21.13;12.70;;;11.70;99.90;;;;;;5068071;28;20422;-68
2021/12/24 11:23:07;;;;;;;19.03;11.70;;;11.60;99.90;;;;;;5071462;28;20439;-70
2021/12/24 11:25:44;;;;;;;17.13;12.20;;;11.50;99.90;;;;;;5070591;28;20437;-69
2021/12/24 11:28:11;;;;;;;20.03;12.10;;;11.50;99.90;;;;;;5071767;28;20572;-69
2021/12/24 11:30:40;;;;;;;16.30;12.80;;;11.50;99.90;;;;;;5072303;28;20542;-72
2021/12/24 11:33:06;;;;;;;21.50;12.77;;;11.50;99.90;;;;;;5070347;28;20982;-69
2021/12/24 11:35:33;;;;;;;17.03;13.30;;;11.50;99.90;;;;;;5072079;28;20469;-69
2021/12/24 11:38:01;;;;;;;18.30;13.13;;;11.50;99.90;;;;;;5070405;28;20451;-68
2021/12/24 11:40:29;;;;;;;19.10;11.27;;;11.60;99.90;;;;;;5071381;28;20775;-75
2021/12/24 11:43:03;;;;;;;16.50;11.93;;;11.60;99.90;;;;;;5070816;28;21003;-74
2021/12/24 11:45:33;;;;;;;18.17;12.10;;;11.50;99.90;;;;;;5068725;28;20802;-68
2021/12/24 11:47:59;;;;;;;14.93;11.23;;;11.40;99.90;;;;;;5067344;28;20428;-68
2021/12/24 11:50:27;;;;;;;14.70;10.60;;;11.40;99.90;;;;;;5071751;28;20525;-69
2021/12/24 11:52:56;;;;;;;13.97;9.93;;;11.40;99.90;;;;;;5073255;28;20450;-81
2021/12/24 11:55:24;;;;;;;14.17;10.97;;;11.40;99.90;;;;;;5051575;28;20418;-68
2021/12/24 11:57:59;;;;;;;13.87;9.50;;;11.40;99.90;;;;;;5073557;28;20457;-71
2021/12/24 12:00:38;;;;;;;11.47;9.60;;;11.50;99.90;;;;;;5068741;28;20561;-68
2021/12/24 12:03:05;;;;;;;295.37;172.00;;;11.50;99.90;;;;;;5071931;28;20415;-68
2021/12/24 12:05:34;;;;;;;364.87;211.33;;;11.50;99.90;;;;;;5071569;28;20929;-68
2021/12/24 12:08:28;;;;;;;17.40;12.90;;;11.50;99.90;;;;;;5069538;28;20435;-77
2021/12/24 12:11:02;;;;;;;13.50;10.07;;;11.50;99.90;;;;;;5070718;28;20478;-81
2021/12/24 12:13:39;;;;;;;15.83;11.77;;;11.50;99.90;;;;;;5067854;28;20466;-69
2021/12/24 12:16:10;;;;;;;16.57;11.80;;;11.50;99.90;;;;;;5064153;28;20771;-69
2021/12/24 12:18:48;;;;;;;15.67;11.57;;;11.40;99.90;;;;;;5071463;28;20424;-69
2021/12/24 12:21:26;;;;;;;15.73;12.17;;;11.40;99.90;;;;;;5072765;28;20395;-69
2021/12/24 12:26:41;;;;;;;13.97;10.20;;;11.40;99.90;;;;;;5072465;28;20421;-70
2021/12/24 12:29:32;;;;;;;14.77;11.13;;;11.40;99.90;;;;;;5061910;28;20951;-69
2021/12/24 12:32:27;;;;;;;13.37;10.93;;;11.40;99.90;;;;;;5073098;28;20460;-70
2021/12/24 12:34:58;;;;;;;14.10;9.87;;;11.40;99.90;;;;;;5055430;28;20749;-81
2021/12/24 12:37:25;;;;;;;12.67;9.83;;;11.40;99.90;;;;;;5073042;28;20450;-69
2021/12/24 12:39:55;;;;;;;14.60;10.70;;;11.40;99.90;;;;;;5072789;28;20924;-77
2021/12/24 12:42:24;;;;;;;13.70;10.80;;;11.30;99.90;;;;;;5071571;28;20420;-70
2021/12/24 12:44:53;;;;;;;14.60;10.30;;;11.30;99.90;;;;;;5072128;28;20470;-68
2021/12/24 12:47:22;;;;;;;12.30;10.23;;;11.40;99.90;;;;;;5069804;28;20413;-69
2021/12/24 12:49:49;;;;;;;14.07;9.97;;;11.40;99.90;;;;;;5053782;28;20427;-69
2021/12/24 12:52:30;;;;;;;12.57;10.80;;;11.40;99.90;;;;;;5052259;28;20499;-70
2021/12/24 12:54:58;;;;;;;19.20;11.43;;;11.40;99.90;;;;;;5064067;28;20420;-68
2021/12/24 12:57:36;;;;;;;18.83;11.67;;;11.40;99.90;;;;;;5068156;28;20450;-68
2021/12/24 13:00:08;;;;;;;14.50;11.87;;;11.40;99.90;;;;;;5069734;28;20445;-69
2021/12/24 13:03:06;;;;;;;13.93;10.73;;;11.40;99.90;;;;;;5066570;28;20500;-73
2021/12/24 13:05:42;;;;;;;15.63;10.70;;;11.50;99.90;;;;;;5070552;28;20917;-68
2021/12/24 13:08:17;;;;;;;13.20;10.47;;;11.40;99.90;;;;;;5069232;28;20435;-87
2021/12/24 13:11:05;;;;;;;14.00;11.03;;;11.50;99.90;;;;;;5082634;28;20414;-68
2021/12/24 13:13:53;;;;;;;15.27;11.90;;;11.40;99.90;;;;;;5088176;28;20484;-71
2021/12/24 13:16:24;;;;;;;12.50;10.73;;;11.40;99.90;;;;;;5069776;28;20461;-69
2021/12/24 13:19:00;;;;;;;14.07;9.93;;;11.40;99.90;;;;;;5071786;28;20416;-69
2021/12/24 13:24:12;;;;;;;13.73;12.13;;;11.40;99.90;;;;;;5071435;28;20741;-69
2021/12/24 13:26:39;;;;;;;15.17;11.13;;;11.40;99.90;;;;;;5070794;28;20421;-69
2021/12/24 13:29:16;;;;;;;15.90;10.63;;;11.40;99.90;;;;;;5071236;28;20423;-69
2021/12/24 13:31:49;;;;;;;16.27;10.70;;;11.40;99.90;;;;;;5072128;28;20452;-68
2021/12/24 13:34:16;;;;;;;13.87;10.73;;;11.40;99.90;;;;;;5071101;28;20395;-68
2021/12/24 13:36:42;;;;;;;13.60;10.53;;;11.30;99.90;;;;;;5070638;28;20462;-68
2021/12/24 13:39:13;;;;;;;16.23;12.27;;;11.30;99.90;;;;;;5070604;28;20919;-68
2021/12/24 13:41:41;;;;;;;17.73;11.60;;;11.20;99.90;;;;;;5053422;28;20427;-68
2021/12/24 13:44:18;;;;;;;15.77;11.70;;;11.30;99.90;;;;;;5064370;28;20923;-69
2021/12/24 13:46:44;;;;;;;16.83;11.87;;;11.20;99.90;;;;;;5069897;28;20469;-69
2021/12/24 13:49:23;;;;;;;13.17;11.07;;;11.20;99.90;;;;;;5068927;28;20423;-72
2021/12/24 13:54:35;;;;;;;19.20;11.60;;;11.10;99.90;;;;;;5070657;28;21025;-68
2021/12/24 13:57:04;;;;;;;42.13;26.03;;;11.30;99.90;;;;;;5081311;28;20466;-67
2021/12/24 13:59:31;;;;;;;40.60;31.10;;;11.30;99.90;;;;;;5073464;28;20491;-67
2021/12/24 14:01:57;;;;;;;15.13;12.83;;;11.30;99.90;;;;;;5069632;28;20424;-73
2021/12/24 14:04:23;;;;;;;14.50;11.77;;;11.40;99.90;;;;;;5071086;28;20467;-67
2021/12/24 14:06:58;;;;;;;18.87;12.70;;;11.30;99.90;;;;;;5070664;28;20437;-67
2021/12/24 14:09:32;;;;;;;18.50;13.23;;;11.30;99.90;;;;;;5058147;28;20511;-67
2021/12/24 14:12:06;;;;;;;20.63;12.97;;;11.30;99.90;;;;;;5064512;28;20462;-70
2021/12/24 14:14:47;;;;;;;18.70;12.60;;;11.20;99.90;;;;;;5066223;28;20518;-68
2021/12/24 14:22:23;;;;;;;26.63;13.50;;;11.30;99.90;;;;;;5073322;28;20762;-67
2021/12/24 14:25:01;;;;;;;20.30;14.37;;;11.30;99.90;;;;;;5071735;28;20301;-68
2021/12/24 14:27:29;;;;;;;21.73;14.00;;;11.30;99.90;;;;;;5072563;28;20414;-68
2021/12/24 14:30:08;;;;;;;15.53;11.57;;;11.40;99.90;;;;;;5071858;28;20433;-75